Time;durP1;ratioP1;P1;durP2;ratioP2;P2;SDS_P1;SDS_P2;PMS_P1;PMS_P2;Temp;Humidity;BMP_temperature;BMP_pressure;BME280_temperature;BME280_humidity;BME280_pressure;Samples;Min_cycle;Max_cycle;Signal;HPM_P1;HPM_P2
2023/04/11 00:00:18;;;;;;;2.63;0.73;;;8.80;99.90;;;;;;5006412;28;20034;-64
2023/04/11 00:02:45;;;;;;;2.22;0.65;;;8.90;99.90;;;;;;5001138;28;20440;-65
2023/04/11 00:05:11;;;;;;;4.43;0.85;;;8.80;99.90;;;;;;5004623;28;20018;-65
2023/04/11 00:07:37;;;;;;;8.65;0.70;;;8.80;99.90;;;;;;5003968;28;20034;-66
2023/04/11 00:10:03;;;;;;;1.42;1.17;;;8.80;99.90;;;;;;4998317;28;20077;-64
2023/04/11 00:12:29;;;;;;;3.60;0.93;;;8.80;99.90;;;;;;4999526;28;20099;-67
2023/04/11 00:14:55;;;;;;;3.38;0.68;;;8.80;99.90;;;;;;5007371;28;20610;-65
2023/04/11 00:17:22;;;;;;;2.15;0.88;;;8.80;99.90;;;;;;5007368;28;20026;-65
2023/04/11 00:19:48;;;;;;;4.90;1.55;;;8.80;99.90;;;;;;5001614;28;20056;-64
2023/04/11 00:22:16;;;;;;;2.95;0.55;;;8.80;99.90;;;;;;5008622;28;20427;-64
2023/04/11 00:24:42;;;;;;;2.58;0.50;;;8.80;99.90;;;;;;5003792;28;20060;-65
2023/04/11 00:27:07;;;;;;;2.03;0.60;;;8.80;99.90;;;;;;5007629;28;20065;-64
2023/04/11 00:29:35;;;;;;;4.60;0.60;;;8.70;99.90;;;;;;5006422;28;20036;-65
2023/04/11 00:32:01;;;;;;;4.88;1.10;;;8.80;99.90;;;;;;5009713;28;20021;-65
2023/04/11 00:34:27;;;;;;;1.15;0.90;;;8.80;99.90;;;;;;5006510;28;20445;-65
2023/04/11 00:36:52;;;;;;;1.95;0.68;;;8.70;99.90;;;;;;5006808;28;20037;-65
2023/04/11 00:39:19;;;;;;;4.53;1.08;;;8.70;99.90;;;;;;5008269;28;20026;-65
2023/04/11 00:41:45;;;;;;;2.53;0.70;;;8.70;99.90;;;;;;5010064;28;20022;-64
2023/04/11 00:44:12;;;;;;;3.28;0.60;;;8.70;99.90;;;;;;5006940;28;20026;-65
2023/04/11 00:46:41;;;;;;;0.63;0.45;;;8.70;99.90;;;;;;5004801;28;20026;-65
2023/04/11 00:49:07;;;;;;;2.15;0.80;;;8.70;99.90;;;;;;5009925;28;20113;-65
2023/04/11 00:51:34;;;;;;;3.42;0.65;;;8.70;99.90;;;;;;5011407;28;20503;-65
2023/04/11 00:54:00;;;;;;;2.88;0.60;;;8.70;99.90;;;;;;5010448;28;20077;-64
2023/04/11 00:56:27;;;;;;;1.60;0.65;;;8.70;99.90;;;;;;5005091;28;20030;-65
2023/04/11 00:58:53;;;;;;;5.78;1.00;;;8.60;99.90;;;;;;5006429;28;20049;-65
2023/04/11 01:01:18;;;;;;;1.77;0.47;;;8.60;99.90;;;;;;5011498;28;20092;-65
2023/04/11 01:03:44;;;;;;;4.93;0.70;;;8.60;99.90;;;;;;5006473;28;20807;-64
2023/04/11 01:06:12;;;;;;;2.25;0.73;;;8.60;99.90;;;;;;5009519;28;20042;-66
2023/04/11 01:08:38;;;;;;;0.77;0.60;;;8.60;99.90;;;;;;5009308;28;20104;-65
2023/04/11 01:11:05;;;;;;;6.70;0.73;;;8.70;99.90;;;;;;5008337;28;20088;-64
2023/04/11 01:13:33;;;;;;;5.25;1.15;;;8.70;99.90;;;;;;5008298;28;20062;-65
2023/04/11 01:15:59;;;;;;;3.53;0.80;;;8.70;99.90;;;;;;5001627;28;20030;-65
2023/04/11 01:18:25;;;;;;;2.97;0.60;;;8.70;99.90;;;;;;5007243;28;20033;-66
2023/04/11 01:20:52;;;;;;;2.58;0.70;;;8.70;99.90;;;;;;5010463;28;20372;-65
2023/04/11 01:23:22;;;;;;;5.25;1.40;;;8.70;99.90;;;;;;5007486;28;20032;-65
2023/04/11 01:25:48;;;;;;;4.15;1.02;;;8.70;99.90;;;;;;5008512;28;20058;-66
2023/04/11 01:28:14;;;;;;;6.13;0.63;;;8.70;99.90;;;;;;5007839;28;20048;-64
2023/04/11 01:30:39;;;;;;;3.65;1.00;;;8.70;99.90;;;;;;5008248;28;20550;-65
2023/04/11 01:33:05;;;;;;;4.53;0.73;;;8.70;99.90;;;;;;5010128;28;20060;-65
2023/04/11 01:35:31;;;;;;;3.45;0.60;;;8.70;99.90;;;;;;5007671;28;20057;-64
2023/04/11 01:37:57;;;;;;;2.72;0.73;;;8.60;99.90;;;;;;5008055;28;20030;-66
2023/04/11 01:40:23;;;;;;;5.90;0.80;;;8.60;99.90;;;;;;5005966;28;20117;-65
2023/04/11 01:42:49;;;;;;;5.57;1.95;;;8.60;99.90;;;;;;5006944;28;20121;-66
2023/04/11 01:45:15;;;;;;;9.80;1.40;;;8.60;99.90;;;;;;5007783;28;20029;-65
2023/04/11 01:47:41;;;;;;;8.85;1.77;;;8.60;99.90;;;;;;5007819;28;20022;-65
2023/04/11 01:50:07;;;;;;;11.80;1.50;;;8.70;99.90;;;;;;5007003;28;20026;-63
2023/04/11 01:52:32;;;;;;;17.00;1.45;;;8.70;99.90;;;;;;5008177;28;20026;-65
2023/04/11 01:54:58;;;;;;;6.28;1.55;;;8.80;99.90;;;;;;5010239;28;20014;-65
2023/04/11 01:57:23;;;;;;;3.95;1.63;;;8.80;99.90;;;;;;5007649;28;20021;-65
2023/04/11 01:59:49;;;;;;;11.88;2.35;;;8.70;99.90;;;;;;5007982;28;20038;-65
2023/04/11 02:02:15;;;;;;;4.68;1.48;;;8.70;99.90;;;;;;5006973;28;20484;-65
2023/04/11 02:04:40;;;;;;;7.80;2.17;;;8.70;99.90;;;;;;5006963;28;20053;-65
2023/04/11 02:07:06;;;;;;;10.48;1.80;;;8.70;99.90;;;;;;5010952;28;20047;-65
2023/04/11 02:09:31;;;;;;;9.30;1.90;;;8.70;99.90;;;;;;5010780;28;21709;-65
2023/04/11 02:11:58;;;;;;;8.70;2.40;;;8.70;99.90;;;;;;5011576;28;20022;-65
2023/04/11 02:14:24;;;;;;;6.85;1.25;;;8.70;99.90;;;;;;5010006;28;20025;-65
2023/04/11 02:16:54;;;;;;;9.73;2.05;;;8.60;99.90;;;;;;5006001;28;20508;-65
2023/04/11 02:19:22;;;;;;;6.32;1.30;;;8.70;99.90;;;;;;5006773;28;20030;-65
2023/04/11 02:21:48;;;;;;;17.90;2.45;;;8.70;99.90;;;;;;5010005;28;20018;-65
2023/04/11 02:24:13;;;;;;;8.70;1.20;;;8.70;99.90;;;;;;5011492;28;20033;-64
2023/04/11 02:26:40;;;;;;;10.85;2.22;;;8.70;99.90;;;;;;5012732;28;20040;-65
2023/04/11 02:29:06;;;;;;;13.55;2.90;;;8.80;99.90;;;;;;5009989;28;20041;-64
2023/04/11 02:31:32;;;;;;;11.00;2.35;;;8.80;99.90;;;;;;5013203;28;20030;-64
2023/04/11 02:33:57;;;;;;;14.05;1.83;;;8.80;99.90;;;;;;5012318;28;20029;-65
2023/04/11 02:36:23;;;;;;;19.73;2.67;;;8.80;99.90;;;;;;5008430;28;20646;-65
2023/04/11 02:38:48;;;;;;;20.98;4.22;;;8.70;99.90;;;;;;5008246;28;20120;-65
2023/04/11 02:41:14;;;;;;;17.20;4.85;;;8.70;99.90;;;;;;5009976;28;20038;-64
2023/04/11 02:43:40;;;;;;;19.88;2.90;;;8.70;99.90;;;;;;5009557;28;20034;-65
2023/04/11 02:46:06;;;;;;;12.32;2.00;;;8.70;99.90;;;;;;5011598;28;20032;-64
2023/04/11 02:48:32;;;;;;;13.15;2.65;;;8.70;99.90;;;;;;5012154;28;20510;-65
2023/04/11 02:50:57;;;;;;;7.70;1.65;;;8.60;99.90;;;;;;5011904;28;20034;-64
2023/04/11 02:53:23;;;;;;;12.50;3.00;;;8.60;99.90;;;;;;5012363;28;20040;-64
2023/04/11 02:55:49;;;;;;;17.23;2.55;;;8.60;99.90;;;;;;5011206;28;20042;-64
2023/04/11 02:58:16;;;;;;;14.18;2.78;;;8.60;99.90;;;;;;5011009;28;20538;-65
2023/04/11 03:00:43;;;;;;;7.97;1.92;;;8.60;99.90;;;;;;5013104;28;20033;-65
2023/04/11 03:03:08;;;;;;;21.55;3.25;;;8.60;99.90;;;;;;5009010;28;20030;-65
2023/04/11 03:05:34;;;;;;;17.98;2.42;;;8.60;99.90;;;;;;5013225;28;20029;-65
2023/04/11 03:08:00;;;;;;;9.07;3.30;;;8.60;99.90;;;;;;5011040;28;20403;-64
2023/04/11 03:10:25;;;;;;;10.05;2.85;;;8.60;99.90;;;;;;5011379;28;20115;-65
2023/04/11 03:12:51;;;;;;;18.90;3.65;;;8.60;99.90;;;;;;5007472;28;20030;-65
2023/04/11 03:15:16;;;;;;;17.13;2.10;;;8.60;99.90;;;;;;5026722;28;20030;-65
2023/04/11 03:17:42;;;;;;;25.50;3.55;;;8.60;99.90;;;;;;5010522;28;20038;-64
2023/04/11 03:20:10;;;;;;;12.65;3.22;;;8.50;99.90;;;;;;5011168;28;20446;-65
2023/04/11 03:22:37;;;;;;;14.90;2.70;;;8.50;99.90;;;;;;5011175;28;20030;-65
2023/04/11 03:25:04;;;;;;;23.38;2.70;;;8.50;99.90;;;;;;5030028;23;20522;-66
2023/04/11 03:27:29;;;;;;;18.88;3.20;;;8.50;99.90;;;;;;5010446;28;20022;-66
2023/04/11 03:29:55;;;;;;;15.82;2.28;;;8.50;99.90;;;;;;5015444;28;20033;-66
2023/04/11 03:32:20;;;;;;;14.27;2.40;;;8.50;99.90;;;;;;5009931;28;20550;-67
2023/04/11 03:34:46;;;;;;;12.73;2.28;;;8.40;99.90;;;;;;5008275;28;20077;-67
2023/04/11 03:37:11;;;;;;;14.55;2.28;;;8.40;99.90;;;;;;5000961;28;20122;-66
2023/04/11 03:39:37;;;;;;;17.25;2.85;;;8.40;99.90;;;;;;4990452;28;20026;-67
2023/04/11 03:42:03;;;;;;;20.23;3.15;;;8.40;99.90;;;;;;4990665;28;20026;-64
2023/04/11 03:44:28;;;;;;;14.80;2.38;;;8.40;99.90;;;;;;5001661;28;20563;-67
2023/04/11 03:46:54;;;;;;;19.83;3.00;;;8.30;99.90;;;;;;4989848;28;20399;-65
2023/04/11 03:49:20;;;;;;;13.88;2.80;;;8.30;99.90;;;;;;4998920;28;20037;-67
2023/04/11 03:51:45;;;;;;;14.68;3.33;;;8.30;99.90;;;;;;4995369;28;20113;-68
2023/04/11 03:54:11;;;;;;;21.05;2.40;;;8.20;99.90;;;;;;4990959;28;20037;-66
2023/04/11 03:56:36;;;;;;;12.77;2.17;;;8.20;99.90;;;;;;4990206;28;20030;-66
2023/04/11 03:59:02;;;;;;;13.75;1.55;;;8.20;99.90;;;;;;4989436;28;20031;-66
2023/04/11 04:01:28;;;;;;;12.15;2.45;;;8.20;99.90;;;;;;4989076;28;20061;-67
2023/04/11 04:03:53;;;;;;;24.98;3.10;;;8.10;99.90;;;;;;4995424;28;20053;-67
2023/04/11 04:06:19;;;;;;;15.68;3.60;;;8.10;99.90;;;;;;4997390;28;20030;-66
2023/04/11 04:08:44;;;;;;;21.95;3.25;;;8.10;99.90;;;;;;5002339;28;20436;-67
2023/04/11 04:11:10;;;;;;;17.00;3.40;;;8.00;99.90;;;;;;4989552;28;20033;-66
2023/04/11 04:13:35;;;;;;;14.75;2.88;;;8.00;99.90;;;;;;4992845;28;20575;-67
2023/04/11 04:16:01;;;;;;;17.33;2.97;;;8.00;99.90;;;;;;4997943;28;20030;-67
2023/04/11 04:18:26;;;;;;;17.88;2.97;;;8.00;99.90;;;;;;4995231;28;20030;-65
2023/04/11 04:20:52;;;;;;;13.20;2.70;;;8.00;99.90;;;;;;4997826;28;20077;-67
2023/04/11 04:23:20;;;;;;;16.83;2.67;;;8.00;99.90;;;;;;4997935;28;20030;-67
2023/04/11 04:25:49;;;;;;;15.70;2.95;;;8.00;99.90;;;;;;4987165;28;20065;-67
2023/04/11 04:28:19;;;;;;;23.67;4.10;;;8.00;99.90;;;;;;4993737;28;20025;-66
2023/04/11 04:30:48;;;;;;;11.65;3.00;;;8.00;99.90;;;;;;4989752;28;20099;-66
2023/04/11 04:33:17;;;;;;;16.15;2.80;;;8.10;99.90;;;;;;4986962;28;20030;-66
2023/04/11 04:35:43;;;;;;;19.85;3.45;;;8.00;99.90;;;;;;4988718;28;20029;-66
2023/04/11 04:38:16;;;;;;;15.18;2.60;;;8.10;99.90;;;;;;4987057;28;20044;-66
2023/04/11 04:40:44;;;;;;;9.32;1.92;;;8.10;99.90;;;;;;4989628;28;20106;-66
2023/04/11 04:43:17;;;;;;;10.98;2.13;;;8.00;99.90;;;;;;4988297;28;20020;-66
2023/04/11 04:45:45;;;;;;;19.83;2.85;;;8.10;99.90;;;;;;4992115;28;20121;-67
2023/04/11 04:48:14;;;;;;;14.55;2.47;;;8.10;99.90;;;;;;4986508;28;20018;-67
2023/04/11 04:50:40;;;;;;;19.13;3.28;;;8.10;99.90;;;;;;5005076;28;20049;-67
2023/04/11 04:53:06;;;;;;;13.30;3.13;;;8.10;99.90;;;;;;5000217;28;20049;-65
2023/04/11 04:55:32;;;;;;;16.27;2.70;;;8.10;99.90;;;;;;4989271;28;20021;-67
2023/04/11 04:57:57;;;;;;;13.80;2.13;;;8.20;99.90;;;;;;4992043;28;20026;-67
2023/04/11 05:00:23;;;;;;;20.90;3.65;;;8.10;99.90;;;;;;4994293;28;21250;-66
2023/04/11 05:02:49;;;;;;;13.60;2.10;;;8.20;99.90;;;;;;4999174;28;20054;-66
2023/04/11 05:05:15;;;;;;;12.40;2.88;;;8.20;99.90;;;;;;4988843;28;20109;-66
2023/04/11 05:07:41;;;;;;;16.38;3.40;;;8.20;99.90;;;;;;4991061;28;20378;-66
2023/04/11 05:10:07;;;;;;;13.85;2.50;;;8.20;99.90;;;;;;4991507;28;20578;-65
2023/04/11 05:12:33;;;;;;;22.52;2.70;;;8.10;99.90;;;;;;4988260;28;20018;-66
2023/04/11 05:14:58;;;;;;;13.38;2.88;;;8.20;99.90;;;;;;4991934;28;20492;-67
2023/04/11 05:17:25;;;;;;;16.50;3.33;;;8.20;99.90;;;;;;4990805;28;20612;-67
2023/04/11 05:19:50;;;;;;;15.80;2.60;;;8.20;99.90;;;;;;4990419;28;20041;-67
2023/04/11 05:22:16;;;;;;;16.70;2.53;;;8.20;99.90;;;;;;4994007;28;20030;-67
2023/04/11 05:24:41;;;;;;;16.17;2.65;;;8.20;99.90;;;;;;4994721;28;20058;-67
2023/04/11 05:27:07;;;;;;;17.23;2.53;;;8.20;99.90;;;;;;4991356;28;20383;-67
2023/04/11 05:29:33;;;;;;;13.40;2.88;;;8.20;99.90;;;;;;4996836;28;20038;-67
2023/04/11 05:31:58;;;;;;;12.45;2.45;;;8.20;99.90;;;;;;4989415;28;20046;-67
2023/04/11 05:34:24;;;;;;;8.82;1.80;;;8.30;99.90;;;;;;4990958;28;20081;-67
2023/04/11 05:36:49;;;;;;;11.73;2.90;;;8.20;99.90;;;;;;4990260;28;20109;-66
2023/04/11 05:39:15;;;;;;;12.55;1.95;;;8.30;99.90;;;;;;4992899;28;20037;-67
2023/04/11 05:41:42;;;;;;;16.38;3.63;;;8.30;99.90;;;;;;4989647;28;20552;-66
2023/04/11 05:44:07;;;;;;;13.63;2.78;;;8.30;99.90;;;;;;4992807;28;20042;-66
2023/04/11 05:46:35;;;;;;;16.92;3.33;;;8.30;99.90;;;;;;4992017;28;20030;-67
2023/04/11 05:49:01;;;;;;;18.38;2.67;;;8.40;99.90;;;;;;5002247;28;20037;-67
2023/04/11 05:51:27;;;;;;;7.82;1.90;;;8.40;99.90;;;;;;5003838;28;20046;-67
2023/04/11 05:53:52;;;;;;;11.10;3.03;;;8.40;99.90;;;;;;4989909;28;20054;-67
2023/04/11 05:56:18;;;;;;;24.20;2.70;;;8.40;99.90;;;;;;4992355;28;20045;-67
2023/04/11 05:58:44;;;;;;;17.67;2.20;;;8.50;99.90;;;;;;4992924;28;20022;-68
2023/04/11 06:01:17;;;;;;;23.10;3.20;;;8.50;99.90;;;;;;4998055;28;20050;-66
2023/04/11 06:03:46;;;;;;;22.55;4.43;;;8.50;99.90;;;;;;4999166;28;20029;-67
2023/04/11 06:06:11;;;;;;;14.50;3.00;;;8.50;99.90;;;;;;4994780;28;20030;-67
2023/04/11 06:08:37;;;;;;;18.42;3.97;;;8.50;99.90;;;;;;4996206;28;20030;-67
2023/04/11 06:11:03;;;;;;;11.77;2.45;;;8.50;99.90;;;;;;4996086;28;20555;-66
2023/04/11 06:13:29;;;;;;;16.10;2.42;;;8.60;99.90;;;;;;4992042;28;20030;-67
2023/04/11 06:15:55;;;;;;;18.42;2.45;;;8.60;99.90;;;;;;4993095;28;20026;-67
2023/04/11 06:18:20;;;;;;;12.30;3.63;;;8.70;99.90;;;;;;5000433;28;20085;-65
2023/04/11 06:20:47;;;;;;;15.60;2.70;;;8.70;99.90;;;;;;4987399;28;20030;-67
2023/04/11 06:23:13;;;;;;;15.27;2.42;;;8.80;99.90;;;;;;4992985;28;20022;-67
2023/04/11 06:25:38;;;;;;;15.40;2.45;;;8.80;99.90;;;;;;4989531;28;20062;-67
2023/04/11 06:28:04;;;;;;;14.25;2.50;;;8.80;99.90;;;;;;4993940;28;20506;-65
2023/04/11 06:30:30;;;;;;;6.78;1.98;;;8.80;99.90;;;;;;4991133;28;20028;-67
2023/04/11 06:32:55;;;;;;;12.10;2.17;;;8.80;99.90;;;;;;4992979;28;20117;-67
2023/04/11 06:35:23;;;;;;;12.52;2.17;;;8.90;99.90;;;;;;4996563;28;20049;-67
2023/04/11 06:37:50;;;;;;;10.13;2.50;;;8.90;99.90;;;;;;4988174;28;20030;-67
2023/04/11 06:40:18;;;;;;;14.13;3.20;;;8.90;99.90;;;;;;4988477;28;20049;-67
2023/04/11 06:42:45;;;;;;;11.32;3.10;;;8.90;99.90;;;;;;4991727;28;20488;-67
2023/04/11 06:45:10;;;;;;;12.15;2.35;;;9.10;99.90;;;;;;4996098;28;20042;-64
2023/04/11 06:47:36;;;;;;;16.20;2.95;;;9.30;99.90;;;;;;4991735;28;20046;-68
2023/04/11 06:50:02;;;;;;;17.88;3.65;;;9.30;99.90;;;;;;4989926;28;20478;-68
2023/04/11 06:52:29;;;;;;;14.65;3.15;;;9.40;99.90;;;;;;4986781;28;20117;-66
2023/04/11 06:54:55;;;;;;;13.88;2.15;;;9.60;99.90;;;;;;4991963;28;20054;-67
2023/04/11 06:57:20;;;;;;;11.98;2.83;;;9.70;99.90;;;;;;4989200;28;20443;-67
2023/04/11 06:59:46;;;;;;;11.57;2.17;;;9.70;99.90;;;;;;5000999;28;20073;-67
2023/04/11 07:02:12;;;;;;;10.68;2.88;;;9.80;99.90;;;;;;4991514;28;20448;-65
2023/04/11 07:04:37;;;;;;;9.15;2.25;;;10.00;99.90;;;;;;5000818;28;20033;-67
2023/04/11 07:07:03;;;;;;;13.95;2.42;;;10.30;99.90;;;;;;4989440;28;20030;-67
2023/04/11 07:09:29;;;;;;;12.93;2.35;;;10.90;99.90;;;;;;4990513;28;20041;-67
2023/04/11 07:11:55;;;;;;;9.30;1.92;;;11.30;99.90;;;;;;4992174;28;20030;-68
2023/04/11 07:14:21;;;;;;;18.73;2.58;;;11.30;99.90;;;;;;4993011;28;20042;-67
2023/04/11 07:16:46;;;;;;;11.15;2.42;;;11.30;99.90;;;;;;4992516;28;20415;-66
2023/04/11 07:19:12;;;;;;;7.30;1.70;;;11.00;99.90;;;;;;5005696;28;20057;-66
2023/04/11 07:21:37;;;;;;;9.80;1.90;;;10.80;99.90;;;;;;4989823;28;21059;-65
2023/04/11 07:24:05;;;;;;;12.27;1.92;;;10.60;99.90;;;;;;4989296;28;20030;-66
2023/04/11 07:26:31;;;;;;;7.25;2.03;;;10.90;99.90;;;;;;4999949;28;20022;-68
2023/04/11 07:28:56;;;;;;;8.60;1.90;;;11.20;99.90;;;;;;4987907;28;20027;-67
2023/04/11 07:31:22;;;;;;;13.38;2.65;;;11.10;99.90;;;;;;4996087;28;20038;-67
2023/04/11 07:33:47;;;;;;;17.13;2.72;;;11.30;99.90;;;;;;4990868;28;20041;-67
2023/04/11 07:36:13;;;;;;;11.70;2.78;;;11.70;99.90;;;;;;4999190;28;20030;-66
2023/04/11 07:38:40;;;;;;;10.45;2.40;;;12.60;99.90;;;;;;4994973;28;20027;-68
2023/04/11 07:41:06;;;;;;;5.53;1.85;;;13.40;99.90;;;;;;4988711;28;20096;-67
2023/04/11 07:43:32;;;;;;;5.10;1.92;;;14.50;99.20;;;;;;4974147;28;20038;-68
2023/04/11 07:45:58;;;;;;;9.75;2.10;;;14.80;96.60;;;;;;4994887;28;20041;-68
2023/04/11 07:48:25;;;;;;;7.22;2.55;;;14.90;97.50;;;;;;4989348;28;20037;-69
2023/04/11 07:50:54;;;;;;;13.13;3.03;;;15.80;96.50;;;;;;4974741;28;20027;-68
2023/04/11 07:53:23;;;;;;;6.63;2.35;;;16.40;94.00;;;;;;4969551;28;20062;-69
2023/04/11 07:55:49;;;;;;;10.77;2.50;;;17.00;93.70;;;;;;4972173;28;20473;-68
2023/04/11 07:58:14;;;;;;;7.50;2.33;;;17.30;91.70;;;;;;4969540;28;20027;-67
2023/04/11 08:00:40;;;;;;;6.68;1.95;;;17.40;91.70;;;;;;4963632;28;20493;-68
2023/04/11 08:03:11;;;;;;;9.85;1.90;;;17.30;90.90;;;;;;4968579;28;20425;-68
2023/04/11 08:05:37;;;;;;;7.05;1.92;;;18.10;91.00;;;;;;4968955;28;20011;-68
2023/04/11 08:08:04;;;;;;;10.80;2.42;;;17.20;89.60;;;;;;4970489;28;20023;-68
2023/04/11 08:10:30;;;;;;;12.48;2.92;;;16.70;90.60;;;;;;4969756;28;20089;-68
2023/04/11 08:12:57;;;;;;;10.50;2.25;;;16.70;90.70;;;;;;4982010;28;20436;-68
2023/04/11 08:15:23;;;;;;;13.57;2.28;;;17.40;91.20;;;;;;4970185;28;20025;-68
2023/04/11 08:17:48;;;;;;;6.15;1.80;;;18.10;88.90;;;;;;4976764;28;20031;-67
2023/04/11 08:20:15;;;;;;;9.43;2.50;;;17.20;87.50;;;;;;4976474;28;20034;-68
2023/04/11 08:22:45;;;;;;;8.65;1.95;;;16.00;90.10;;;;;;4969166;28;20449;-68
2023/04/11 08:25:12;;;;;;;7.22;2.10;;;15.00;91.40;;;;;;4970356;28;20022;-67
2023/04/11 08:27:38;;;;;;;8.75;1.80;;;14.30;92.40;;;;;;4971211;28;20034;-67
2023/04/11 08:30:07;;;;;;;14.25;2.90;;;13.70;93.70;;;;;;4967954;28;20485;-67
2023/04/11 08:32:33;;;;;;;5.18;1.98;;;12.90;95.00;;;;;;4969922;28;20039;-67
2023/04/11 08:34:59;;;;;;;6.28;1.77;;;12.20;96.30;;;;;;4986049;28;20030;-66
2023/04/11 08:37:25;;;;;;;12.40;1.90;;;12.50;97.80;;;;;;4972185;28;20114;-68
2023/04/11 08:39:51;;;;;;;5.22;1.80;;;13.00;97.30;;;;;;4968289;28;20035;-68
2023/04/11 08:42:22;;;;;;;7.35;1.92;;;14.20;96.40;;;;;;4958457;28;20043;-68
2023/04/11 08:45:14;;;;;;;9.25;1.67;;;15.20;94.10;;;;;;4989600;28;20102;-69
2023/04/11 08:47:40;;;;;;;4.63;1.40;;;15.20;92.60;;;;;;4988363;28;20514;-67
2023/04/11 08:50:06;;;;;;;8.93;2.05;;;14.80;93.00;;;;;;4988984;28;20034;-67
2023/04/11 08:52:32;;;;;;;9.30;2.10;;;14.20;93.70;;;;;;4989259;28;20033;-68
2023/04/11 08:54:58;;;;;;;8.07;1.80;;;13.10;94.10;;;;;;4986829;28;20031;-68
2023/04/11 08:57:30;;;;;;;7.05;1.60;;;12.80;96.60;;;;;;4986921;28;20080;-68
2023/04/11 08:59:59;;;;;;;10.30;1.75;;;12.80;96.90;;;;;;4988939;28;20026;-68
2023/04/11 09:02:25;;;;;;;7.80;2.00;;;13.50;95.70;;;;;;4989389;28;20566;-69
2023/04/11 09:04:50;;;;;;;6.50;1.15;;;13.00;94.30;;;;;;4996549;28;20113;-67
2023/04/11 09:07:17;;;;;;;10.50;2.38;;;12.70;95.10;;;;;;4986648;28;20404;-67
2023/04/11 09:09:43;;;;;;;9.55;1.48;;;12.40;95.10;;;;;;4986199;28;20555;-69
2023/04/11 09:12:10;;;;;;;8.63;1.45;;;12.40;95.50;;;;;;4984166;28;20035;-68
2023/04/11 09:14:36;;;;;;;6.25;2.03;;;12.50;95.30;;;;;;4992795;28;20030;-68
2023/04/11 09:17:03;;;;;;;6.28;1.80;;;13.40;95.40;;;;;;5000207;28;20480;-67
2023/04/11 09:19:33;;;;;;;4.18;0.93;;;14.30;94.70;;;;;;5003333;28;20041;-68
2023/04/11 09:22:02;;;;;;;8.82;1.95;;;14.80;91.20;;;;;;5000042;28;20030;-67
2023/04/11 09:24:28;;;;;;;5.10;1.73;;;15.00;91.10;;;;;;4992469;28;20380;-68
2023/04/11 09:27:07;;;;;;;6.55;1.60;;;16.00;90.20;;;;;;4999073;28;20037;-69
2023/04/11 09:29:36;;;;;;;5.30;1.40;;;15.90;86.70;;;;;;5022053;23;20084;-63
2023/04/11 09:32:02;;;;;;;7.05;2.60;;;15.60;87.20;;;;;;5009403;28;20046;-62
2023/04/11 09:34:28;;;;;;;3.78;1.45;;;15.70;90.10;;;;;;5011548;28;20065;-63
2023/04/11 09:36:54;;;;;;;5.55;0.90;;;15.80;88.70;;;;;;5007751;28;20530;-66
2023/04/11 09:39:20;;;;;;;7.32;1.02;;;16.10;87.30;;;;;;5008682;28;20040;-64
2023/04/11 09:41:46;;;;;;;6.82;1.33;;;16.40;84.60;;;;;;5013799;28;20022;-65
2023/04/11 09:44:12;;;;;;;3.22;1.35;;;15.50;87.40;;;;;;4999367;28;20060;-64
2023/04/11 09:46:57;;;;;;;5.63;2.55;;;14.70;88.10;;;;;;5012095;28;20034;-66
2023/04/11 09:49:23;;;;;;;7.22;2.55;;;14.90;90.40;;;;;;5004955;28;20057;-65
2023/04/11 09:51:50;;;;;;;8.48;1.40;;;14.60;90.10;;;;;;5009028;28;20101;-65
2023/04/11 09:54:19;;;;;;;8.43;1.50;;;14.50;90.30;;;;;;5005710;28;20526;-65
2023/04/11 09:56:44;;;;;;;10.75;3.40;;;14.40;91.10;;;;;;5025699;28;20029;-66
2023/04/11 09:59:11;;;;;;;5.35;2.40;;;14.80;90.30;;;;;;5011608;28;20037;-66
2023/04/11 10:01:37;;;;;;;9.13;1.85;;;15.10;90.20;;;;;;4999786;28;20054;-65
2023/04/11 10:04:03;;;;;;;7.47;2.40;;;15.00;90.00;;;;;;5007834;28;20089;-64
2023/04/11 10:06:30;;;;;;;8.15;2.60;;;14.60;89.00;;;;;;5009910;28;20145;-66
2023/04/11 10:09:06;;;;;;;4.65;2.20;;;14.10;90.30;;;;;;5008031;28;20029;-64
2023/04/11 10:11:31;;;;;;;7.93;4.32;;;14.00;89.50;;;;;;5003865;28;20033;-65
2023/04/11 10:13:57;;;;;;;10.30;2.05;;;13.90;90.20;;;;;;5014991;28;20040;-65
2023/04/11 10:16:24;;;;;;;7.22;1.40;;;14.30;89.40;;;;;;5004053;28;20114;-64
2023/04/11 10:18:52;;;;;;;11.57;2.35;;;14.40;90.80;;;;;;4998428;28;20037;-64
2023/04/11 10:21:33;;;;;;;7.38;1.88;;;14.10;90.00;;;;;;5010988;28;20018;-64
2023/04/11 10:24:20;;;;;;;9.85;2.28;;;14.00;90.10;;;;;;5005803;28;20117;-64
2023/04/11 10:26:52;;;;;;;14.68;1.77;;;13.80;90.20;;;;;;5007449;28;20092;-65
2023/04/11 10:32:14;;;;;;;10.00;2.60;;;13.90;90.30;;;;;;5005818;28;20447;-65
2023/04/11 10:35:00;;;;;;;5.78;2.22;;;14.40;90.40;;;;;;5010805;28;20037;-66
2023/04/11 10:37:28;;;;;;;4.15;1.65;;;14.60;90.00;;;;;;4997048;28;20042;-65
2023/04/11 10:39:56;;;;;;;5.72;1.30;;;14.20;85.30;;;;;;5002374;28;20069;-65
2023/04/11 10:42:33;;;;;;;6.13;0.80;;;13.90;87.30;;;;;;5000635;28;20092;-65
2023/04/11 10:45:27;;;;;;;3.88;1.77;;;14.10;86.50;;;;;;5000786;28;20067;-65
2023/04/11 10:47:56;;;;;;;12.60;2.50;;;14.00;87.40;;;;;;5009690;28;20022;-66
2023/04/11 10:50:24;;;;;;;6.88;1.98;;;13.60;90.10;;;;;;5003820;28;20431;-65
2023/04/11 10:53:00;;;;;;;4.50;2.30;;;13.80;89.70;;;;;;5008875;28;20026;-65
2023/04/11 10:55:27;;;;;;;8.32;1.80;;;14.10;90.00;;;;;;5009866;28;20038;-64
2023/04/11 10:58:15;;;;;;;5.68;1.80;;;14.60;87.40;;;;;;4999746;28;20022;-64
2023/04/11 11:00:48;;;;;;;7.57;2.03;;;14.90;88.30;;;;;;5001311;28;20487;-64
2023/04/11 11:03:17;;;;;;;8.35;2.63;;;14.80;88.30;;;;;;5006815;28;20040;-66
2023/04/11 11:05:43;;;;;;;6.90;1.58;;;15.00;86.60;;;;;;5005110;28;20380;-64
2023/04/11 11:08:09;;;;;;;10.55;2.30;;;15.50;84.50;;;;;;5006076;28;20080;-65
2023/04/11 11:10:40;;;;;;;2.47;1.02;;;15.60;83.50;;;;;;5007613;28;20029;-64
2023/04/11 11:13:06;;;;;;;4.93;1.63;;;15.60;80.90;;;;;;5007145;28;20049;-65
2023/04/11 11:15:40;;;;;;;3.22;1.15;;;15.50;82.10;;;;;;5007968;28;20037;-65
2023/04/11 11:18:09;;;;;;;5.32;1.27;;;15.10;80.80;;;;;;5013792;28;20052;-64
2023/04/11 11:20:36;;;;;;;4.07;1.65;;;14.80;81.70;;;;;;5007340;28;20037;-65
2023/04/11 11:23:05;;;;;;;9.35;1.35;;;14.40;81.20;;;;;;4998335;28;20015;-63
2023/04/11 11:25:30;;;;;;;6.30;1.30;;;14.30;81.70;;;;;;5001701;28;20065;-64
2023/04/11 11:28:00;;;;;;;5.63;1.80;;;14.60;82.60;;;;;;5003961;28;20115;-64
2023/04/11 11:30:27;;;;;;;8.88;1.25;;;14.60;82.70;;;;;;5004184;28;20033;-64
2023/04/11 11:32:53;;;;;;;6.68;1.52;;;14.90;81.30;;;;;;4989222;28;20037;-64
2023/04/11 11:35:18;;;;;;;5.65;1.30;;;15.00;79.30;;;;;;5007605;28;20032;-64
2023/04/11 11:37:45;;;;;;;3.53;1.08;;;14.90;82.80;;;;;;4999097;28;20088;-64
2023/04/11 11:40:13;;;;;;;4.57;1.35;;;14.90;79.20;;;;;;5002078;28;20555;-64
2023/04/11 11:42:39;;;;;;;7.43;1.52;;;15.10;80.70;;;;;;5003030;28;20734;-64
2023/04/11 11:45:19;;;;;;;5.05;2.15;;;15.30;79.90;;;;;;4985331;28;20043;-64
2023/04/11 11:47:46;;;;;;;7.93;1.85;;;15.70;81.70;;;;;;5003178;28;20049;-64
2023/04/11 11:50:30;;;;;;;4.82;1.40;;;15.60;79.80;;;;;;5003061;28;20061;-64
2023/04/11 11:53:12;;;;;;;9.77;1.38;;;15.20;77.80;;;;;;5000106;28;20030;-63
2023/04/11 11:55:39;;;;;;;10.52;1.83;;;15.20;77.00;;;;;;5001968;28;20496;-66
2023/04/11 11:58:05;;;;;;;6.32;1.27;;;14.90;78.20;;;;;;4999981;28;20022;-64
2023/04/11 12:00:36;;;;;;;6.13;2.00;;;14.50;78.30;;;;;;5005679;28;20179;-64
2023/04/11 12:03:02;;;;;;;6.15;0.93;;;14.80;80.90;;;;;;5004228;28;20400;-65
2023/04/11 12:05:31;;;;;;;2.30;0.80;;;14.80;78.90;;;;;;4997215;28;20052;-65
2023/04/11 12:07:59;;;;;;;4.30;1.15;;;14.70;78.30;;;;;;5007413;28;20057;-65
2023/04/11 12:10:42;;;;;;;6.88;1.33;;;14.90;80.60;;;;;;5010106;28;20072;-65
2023/04/11 12:13:18;;;;;;;4.32;1.05;;;15.20;79.40;;;;;;5002673;28;20048;-64
2023/04/11 12:15:54;;;;;;;6.63;1.42;;;14.90;77.10;;;;;;5004957;28;20146;-65
2023/04/11 12:18:26;;;;;;;2.50;1.20;;;14.80;78.30;;;;;;5009947;28;20030;-64
2023/04/11 12:20:52;;;;;;;5.25;1.73;;;14.80;79.60;;;;;;5008494;28;20018;-64
2023/04/11 12:23:18;;;;;;;5.55;1.23;;;14.60;79.10;;;;;;5010596;28;20108;-65
2023/04/11 12:25:45;;;;;;;6.50;1.15;;;14.60;80.50;;;;;;5000727;28;20145;-65
2023/04/11 12:28:11;;;;;;;6.25;1.38;;;14.80;78.10;;;;;;5002730;28;20028;-64
2023/04/11 12:30:36;;;;;;;5.15;1.20;;;15.00;78.70;;;;;;4997869;28;20037;-64
2023/04/11 12:33:02;;;;;;;5.53;1.08;;;15.10;76.50;;;;;;4997649;28;20030;-64
2023/04/11 12:35:28;;;;;;;4.97;1.25;;;15.20;78.30;;;;;;5008142;28;20030;-64
2023/04/11 12:37:54;;;;;;;4.13;1.13;;;15.40;78.80;;;;;;4996605;28;20088;-65
2023/04/11 12:40:20;;;;;;;8.60;1.40;;;15.40;78.80;;;;;;5004011;28;20463;-64
2023/04/11 12:42:47;;;;;;;4.10;1.17;;;15.70;78.20;;;;;;5007595;28;20105;-64
2023/04/11 12:45:14;;;;;;;6.00;1.08;;;15.50;75.70;;;;;;4993204;28;20046;-63
2023/04/11 12:47:40;;;;;;;4.05;0.80;;;15.60;75.00;;;;;;5004921;28;20045;-63
2023/04/11 12:50:07;;;;;;;4.38;0.98;;;15.70;74.80;;;;;;5002575;28;20080;-64